메인 페이지
METAR-TAF:

METAR-TAF

공항 :

무르탈라 모하메드 국제공항

라고스, 나이지리아

위도: 06-35N, 경도: 003-20E, 고도: 40m

현재 날씨관측

예보는 9 시간 3분 전, 16:00시(UTC)에 발표되었습니다.
3kt
온도 34°C
습도 60%
기압 1012 hPa
시정: 4000m
고도 1500ft 상공 구름 보통
연무

METAR: DNMM 091600Z 18003KT 4000 HZ SCT015 34/25 Q1012 NOSIG

시각: 02:03 (01:03 UTC)

예보

예보는 9 시간 33분 전, 15:30시(UTC)에 발표되었습니다.
예보 대상 시간: 09일 18시부터 10일 24시까지 (UTC)
여러 방향의 바람 2kt
시정: 6000m
고도 1100ft 상공 구름 조금
일시적
10일 03시부터 10일 08시까지 (UTC)
시정: 3000m
연무
확률 30%
10일 05시부터 10일 08시까지 (UTC)
시정: 2000m
전환 중
10일 09시부터 10일 11시까지 (UTC)
10kt
시정: 5000m
연무

TAF: DNMM 091530Z 0918/1024 VRB02KT 6000 FEW011 TEMPO 1003/1008 3000 HZ PROB30 1005/1008 2000 BECMG 1009/1011 17010KT 5000 HZ

4,000개 이상의 공항 관측 자료 및 예보 (METAR 및 TAF 보고).

지도상에서 검색 가능한 기상관측소가 노란 점과 빨간 점으로 표시되어 있습니다.

기상관측소 명을 보려면 표시 위로 마우스를 이동하세요.

날씨 관측과 예보를 보려면 클릭하세요.

지도 변경 : 확대하려면 엑스 표시가 있는 녹색 버튼, 축소하려면 빼기 표시가 있는 녹색 버튼, 다음 페이지의 지도를 보려면 녹색 화살표를 클릭하세요.


METAR-TAF: